createdAt,value
2019-04-06T00:00:38.701Z,94.21
2019-04-06T00:02:07.425Z,94.23
2019-04-06T00:03:36.148Z,94.22
2019-04-06T00:05:04.888Z,94.19
2019-04-06T00:06:33.663Z,94.08
2019-04-06T00:08:03.271Z,93.93
2019-04-06T00:09:31.980Z,93.8
2019-04-06T00:11:00.727Z,93.75
2019-04-06T00:12:29.501Z,93.84
2019-04-06T00:13:58.220Z,93.9
2019-04-06T00:15:27.025Z,93.98
2019-04-06T00:16:55.818Z,93.99
2019-04-06T00:18:24.555Z,93.9
2019-04-06T00:19:54.222Z,93.79
2019-04-06T00:21:24.732Z,93.83
2019-04-06T00:22:53.658Z,93.87
2019-04-06T00:24:22.507Z,93.89
2019-04-06T00:25:51.508Z,93.94
2019-04-06T00:27:20.227Z,94.06
2019-04-06T00:28:48.947Z,94.07
2019-04-06T00:30:17.660Z,93.99
2019-04-06T00:31:47.266Z,93.94
2019-04-06T00:33:16.939Z,94.01
2019-04-06T00:34:46.625Z,94.03
2019-04-06T00:36:15.902Z,94.04
2019-04-06T00:37:44.668Z,94.07
2019-04-06T00:39:13.519Z,94.16
2019-04-06T00:40:42.300Z,94.2
2019-04-06T00:42:11.106Z,94.22
2019-04-06T00:43:40.477Z,94.13
2019-04-06T00:45:09.194Z,94
2019-04-06T00:46:38.310Z,94
2019-04-06T00:48:07.022Z,94.13
2019-04-06T00:49:35.755Z,94.16
2019-04-06T00:51:04.470Z,94.18
2019-04-06T00:52:33.280Z,94.09
2019-04-06T00:54:03.514Z,94.05
2019-04-06T00:55:32.219Z,94.04
2019-04-06T00:57:01.109Z,94.07
2019-04-06T00:58:29.989Z,94.14
2019-04-06T00:59:58.711Z,94.16
2019-04-06T01:01:27.497Z,94.15
2019-04-06T01:02:56.947Z,94.17
2019-04-06T01:04:26.541Z,94.17
2019-04-06T01:05:56.540Z,94.12
2019-04-06T01:07:28.435Z,94.05
2019-04-06T01:08:57.261Z,93.98
2019-04-06T01:10:26.056Z,94.02
2019-04-06T01:11:54.884Z,94.02
2019-04-06T01:13:23.685Z,93.88
2019-04-06T01:14:52.459Z,93.84
2019-04-06T01:16:21.202Z,93.81
2019-04-06T01:17:50.636Z,93.74
2019-04-06T01:19:19.349Z,93.7
2019-04-06T01:20:48.069Z,93.61
2019-04-06T01:22:16.783Z,93.55
2019-04-06T01:23:45.513Z,93.5
2019-04-06T01:25:14.241Z,93.41
2019-04-06T01:26:43.035Z,93.45
2019-04-06T01:28:11.819Z,93.5
2019-04-06T01:29:40.565Z,93.67
2019-04-06T01:31:09.424Z,93.71
2019-04-06T01:32:39.021Z,93.7
2019-04-06T01:34:07.744Z,93.8
2019-04-06T01:35:36.537Z,93.77
2019-04-06T01:37:05.265Z,93.7
2019-04-06T01:38:33.978Z,93.63
2019-04-06T01:40:02.788Z,93.73
2019-04-06T01:41:31.843Z,93.84
2019-04-06T01:43:00.703Z,93.94
2019-04-06T01:44:29.507Z,93.89
2019-04-06T01:45:58.239Z,93.85
2019-04-06T01:47:27.035Z,93.92
2019-04-06T01:48:55.932Z,93.92
2019-04-06T01:50:24.866Z,93.86
2019-04-06T01:51:53.662Z,93.82
2019-04-06T01:53:22.378Z,93.78
2019-04-06T01:54:51.992Z,93.9
2019-04-06T01:56:23.820Z,94.02
2019-04-06T01:57:53.428Z,93.9
2019-04-06T01:59:23.191Z,93.84
2019-04-06T02:00:51.906Z,93.72
2019-04-06T02:02:20.642Z,93.63
2019-04-06T02:03:49.438Z,93.57
2019-04-06T02:05:19.276Z,93.55
2019-04-06T02:06:48.068Z,93.57
2019-04-06T02:08:16.780Z,93.54
2019-04-06T02:09:45.510Z,93.43
2019-04-06T02:11:15.104Z,93.46
2019-04-06T02:12:43.920Z,93.54
2019-04-06T02:14:12.862Z,93.64
2019-04-06T02:15:41.580Z,93.67
2019-04-06T02:17:11.189Z,93.7
2019-04-06T02:18:39.989Z,93.58
2019-04-06T02:20:09.665Z,93.49
2019-04-06T02:21:39.806Z,93.42
2019-04-06T02:23:08.622Z,93.33
2019-04-06T02:24:38.385Z,93.36
2019-04-06T02:26:07.101Z,93.42
2019-04-06T02:27:35.929Z,93.31
2019-04-06T02:29:04.861Z,93.3
2019-04-06T02:30:33.611Z,93.4
2019-04-06T02:32:03.209Z,93.29
2019-04-06T02:33:32.487Z,93.28
2019-04-06T02:35:02.240Z,93.19
2019-04-06T02:36:31.047Z,93.11
2019-04-06T02:38:00.254Z,93.21
2019-04-06T02:39:29.212Z,93.19
2019-04-06T02:40:57.990Z,93.16
2019-04-06T02:42:26.794Z,93.09
2019-04-06T02:43:56.703Z,93.02
2019-04-06T02:45:25.435Z,92.97
2019-04-06T02:46:54.147Z,93.03
2019-04-06T02:48:22.978Z,93.14
2019-04-06T02:49:51.853Z,93.06
2019-04-06T02:51:21.685Z,93.21
2019-04-06T02:52:52.519Z,93.34
2019-04-06T02:54:22.266Z,93.34
2019-04-06T02:55:51.125Z,93.4
2019-04-06T02:57:21.060Z,93.37
2019-04-06T02:58:50.995Z,93.41
2019-04-06T03:00:19.913Z,93.44
2019-04-06T03:01:49.765Z,93.24
2019-04-06T03:03:19.609Z,93.12
2019-04-06T03:04:48.406Z,93.13
2019-04-06T03:06:17.391Z,93.06
2019-04-06T03:07:46.160Z,93.05
2019-04-06T03:09:16.994Z,93.08
2019-04-06T03:10:46.867Z,93
2019-04-06T03:12:17.365Z,92.99
2019-04-06T03:13:46.178Z,93.02
2019-04-06T03:15:14.973Z,92.93
2019-04-06T03:16:43.834Z,92.97
2019-04-06T03:18:12.550Z,92.95
2019-04-06T03:19:41.781Z,92.84
2019-04-06T03:21:10.749Z,92.96
2019-04-06T03:22:39.509Z,93.09
2019-04-06T03:24:09.489Z,93.18
2019-04-06T03:25:38.386Z,93.08
2019-04-06T03:27:08.093Z,93.04
2019-04-06T03:28:36.962Z,92.97
2019-04-06T03:30:06.060Z,92.9
2019-04-06T03:31:34.906Z,93.01
2019-04-06T03:33:04.542Z,92.93
2019-04-06T03:34:33.785Z,93.02
2019-04-06T03:36:04.183Z,93.17
2019-04-06T03:37:33.131Z,93.12
2019-04-06T03:39:03.032Z,93.11
2019-04-06T03:40:31.933Z,92.99
2019-04-06T03:42:00.727Z,92.94
2019-04-06T03:43:30.006Z,93.04
2019-04-06T03:44:58.796Z,93.01
2019-04-06T03:46:28.389Z,92.95
2019-04-06T03:47:57.347Z,92.91
2019-04-06T03:49:26.234Z,92.95
2019-04-06T03:50:56.889Z,93.05
2019-04-06T03:52:25.994Z,93.06
2019-04-06T03:53:56.822Z,92.96
2019-04-06T03:55:26.550Z,93.04
2019-04-06T03:56:55.495Z,92.96
2019-04-06T04:02:22.627Z,92.98
2019-04-06T04:03:51.341Z,92.94
2019-04-06T04:05:20.242Z,92.97
2019-04-06T04:06:49.351Z,92.97
2019-04-06T04:08:18.231Z,92.97
2019-04-06T04:09:47.043Z,93.1
2019-04-06T04:11:16.184Z,93.04
2019-04-06T04:12:45.741Z,93.04
2019-04-06T04:14:14.645Z,93.25
2019-04-06T04:15:43.655Z,93.38
2019-04-06T04:17:12.475Z,93.31
2019-04-06T04:18:41.558Z,93.32
2019-04-06T04:20:10.309Z,93.25
2019-04-06T04:21:39.038Z,93.22
2019-04-06T04:23:07.910Z,93.19
2019-04-06T04:24:38.449Z,93.15
2019-04-06T04:26:08.064Z,93.08
2019-04-06T04:27:36.804Z,93.06
2019-04-06T04:29:05.630Z,93.04
2019-04-06T04:30:39.103Z,92.98
2019-04-06T04:32:08.050Z,92.93
2019-04-06T04:33:36.862Z,93.02
2019-04-06T04:35:05.903Z,93.1
2019-04-06T04:36:34.708Z,93.05
2019-04-06T04:38:03.440Z,93.27
2019-04-06T04:39:35.181Z,93.2
2019-04-06T04:41:04.281Z,93.21
2019-04-06T04:42:33.024Z,93.15
2019-04-06T04:44:01.967Z,93.15
2019-04-06T04:45:31.191Z,93.18
2019-04-06T04:47:00.304Z,93.14
2019-04-06T04:48:29.098Z,92.96
2019-04-06T04:49:58.397Z,92.97
2019-04-06T04:51:27.263Z,92.9
2019-04-06T04:52:56.542Z,93.02
2019-04-06T04:54:25.254Z,93.08
2019-04-06T04:55:53.976Z,93.07
2019-04-06T04:57:23.589Z,93.22
2019-04-06T04:58:52.310Z,93.2
2019-04-06T05:00:21.184Z,93.31
2019-04-06T05:01:50.056Z,93.42
2019-04-06T05:03:19.599Z,93.35
2019-04-06T05:04:48.545Z,93.24
2019-04-06T05:06:17.590Z,93.08
2019-04-06T05:07:46.572Z,93.05
2019-04-06T05:09:15.578Z,93.2
2019-04-06T05:10:44.884Z,93.11
2019-04-06T05:12:13.649Z,92.97
2019-04-06T05:13:43.559Z,93.03
2019-04-06T05:15:14.152Z,92.95
2019-04-06T05:16:42.945Z,92.95
2019-04-06T05:18:12.541Z,92.86
2019-04-06T05:19:41.340Z,93.08
2019-04-06T05:21:11.690Z,93.06
2019-04-06T05:22:40.466Z,93.19
2019-04-06T05:24:09.370Z,93.21
2019-04-06T05:25:38.558Z,93.23
2019-04-06T05:27:07.346Z,93.12
2019-04-06T05:28:37.022Z,93.25
2019-04-06T05:30:06.070Z,93.15
2019-04-06T05:31:35.358Z,93.15
2019-04-06T05:33:04.165Z,93.06
2019-04-06T05:34:33.821Z,93.02
2019-04-06T05:36:03.583Z,93.02
2019-04-06T05:37:32.459Z,93.04
2019-04-06T05:39:01.676Z,92.97
2019-04-06T05:40:30.381Z,92.91
2019-04-06T05:41:59.117Z,92.85
2019-04-06T05:43:27.975Z,92.89
2019-04-06T05:44:56.709Z,92.97
2019-04-06T05:46:25.653Z,93.02
2019-04-06T05:47:54.377Z,92.93
2019-04-06T05:49:23.105Z,92.95
2019-04-06T05:50:52.009Z,93.05
2019-04-06T05:52:20.781Z,92.92
2019-04-06T05:53:49.497Z,92.97
2019-04-06T05:55:18.421Z,92.95
2019-04-06T05:56:47.394Z,92.89
2019-04-06T05:58:16.228Z,92.87
2019-04-06T05:59:46.140Z,92.84
2019-04-06T06:01:16.466Z,92.79
2019-04-06T06:02:46.778Z,92.84
2019-04-06T06:04:15.903Z,92.79
2019-04-06T06:05:46.329Z,92.65
2019-04-06T06:07:16.067Z,92.7
2019-04-06T06:08:44.794Z,92.72
2019-04-06T06:10:13.505Z,92.65
2019-04-06T06:11:43.183Z,92.64
2019-04-06T06:13:11.980Z,92.56
2019-04-06T06:14:40.997Z,92.54
2019-04-06T06:16:12.547Z,92.47
2019-04-06T06:17:41.583Z,92.45
2019-04-06T06:19:11.046Z,92.41
2019-04-06T06:20:39.837Z,92.46
2019-04-06T06:22:08.622Z,92.56
2019-04-06T06:23:37.418Z,92.58
2019-04-06T06:25:06.597Z,92.65
2019-04-06T06:26:35.341Z,92.61
2019-04-06T06:28:15.723Z,92.55
2019-04-06T06:29:44.634Z,92.54
2019-04-06T06:31:14.714Z,92.48
2019-04-06T06:32:44.863Z,92.41
2019-04-06T06:34:13.824Z,92.46
2019-04-06T06:35:43.610Z,92.47
2019-04-06T06:37:12.375Z,92.4
2019-04-06T06:38:41.762Z,92.38
2019-04-06T06:40:10.638Z,92.42
2019-04-06T06:41:42.807Z,92.42
2019-04-06T06:43:11.992Z,92.37
2019-04-06T06:44:41.114Z,92.31
2019-04-06T06:46:10.093Z,92.37
2019-04-06T06:47:38.970Z,92.36
2019-04-06T06:49:07.972Z,92.41
2019-04-06T06:50:36.711Z,92.32
2019-04-06T06:52:05.427Z,92.29
2019-04-06T06:53:34.298Z,92.2
2019-04-06T06:55:04.393Z,92.1
2019-04-06T06:56:33.442Z,92.02
2019-04-06T06:58:02.434Z,91.95
2019-04-06T06:59:32.325Z,91.94
2019-04-06T07:01:03.724Z,92.01
2019-04-06T07:02:35.460Z,91.87
2019-04-06T07:04:04.780Z,91.76
2019-04-06T07:05:33.498Z,91.75
2019-04-06T07:07:03.149Z,91.71
2019-04-06T07:08:31.931Z,91.75
2019-04-06T07:10:10.306Z,91.68
2019-04-06T07:11:39.181Z,91.79
2019-04-06T07:13:08.780Z,91.85
2019-04-06T07:14:37.513Z,91.98
2019-04-06T07:16:06.866Z,91.98
2019-04-06T07:17:35.666Z,91.74
2019-04-06T07:19:06.472Z,91.57
2019-04-06T07:20:35.188Z,91.45
2019-04-06T07:22:04.143Z,91.42
2019-04-06T07:23:33.186Z,91.34
2019-04-06T07:25:01.912Z,91.21
2019-04-06T07:26:31.912Z,91.29
2019-04-06T07:28:00.629Z,91.33
2019-04-06T07:29:29.669Z,91.31
2019-04-06T07:30:58.389Z,91.4
2019-04-06T07:32:27.667Z,91.35
2019-04-06T08:49:25.272Z,85.7
2019-04-06T08:50:54.304Z,85.36
2019-04-06T08:52:23.392Z,85.28
2019-04-06T08:53:52.142Z,85.52
2019-04-06T08:55:21.971Z,85.3
2019-04-06T08:56:53.065Z,85.02
2019-04-06T08:58:21.812Z,85.14
2019-04-06T08:59:52.074Z,84.96
2019-04-06T09:01:21.396Z,84.7
2019-04-06T09:02:50.314Z,84.68
2019-04-06T09:04:19.098Z,84.95
2019-04-06T09:05:49.000Z,84.46
2019-04-06T09:07:18.769Z,84.5
2019-04-06T09:08:47.502Z,84.18
2019-04-06T09:10:16.212Z,83.85
2019-04-06T09:11:45.023Z,83.78
2019-04-06T09:13:15.468Z,83.85
2019-04-06T09:14:44.350Z,83.22
2019-04-06T09:16:13.974Z,83.05
2019-04-06T09:17:43.654Z,82.65
2019-04-06T09:19:13.168Z,82.87
2019-04-06T09:20:43.952Z,82.71
2019-04-06T09:22:12.928Z,82.57
2019-04-06T09:23:42.741Z,82.39
2019-04-06T09:25:11.490Z,82.45
2019-04-06T09:26:41.301Z,81.79
2019-04-06T09:28:10.128Z,81.46
2019-04-06T09:29:39.002Z,81.75
2019-04-06T09:31:07.749Z,81.56
2019-04-06T09:32:37.419Z,81.22
2019-04-06T09:34:07.567Z,80.89
2019-04-06T09:35:36.304Z,81.01
2019-04-06T09:37:05.357Z,81.35
2019-04-06T09:38:34.130Z,81.41
2019-04-06T09:40:03.174Z,80.89
2019-04-06T09:41:32.772Z,80.81
2019-04-06T09:43:01.571Z,80.65
2019-04-06T09:44:30.392Z,80.38
2019-04-06T09:45:59.474Z,79.96
2019-04-06T09:47:29.216Z,79.9
2019-04-06T09:48:58.136Z,79.41
2019-04-06T09:50:26.937Z,79.11
2019-04-06T09:51:55.811Z,79.32
2019-04-06T09:53:24.527Z,79.3
2019-04-06T09:54:54.150Z,79.01
2019-04-06T09:56:23.336Z,77.85
2019-04-06T09:57:53.007Z,77.78
2019-04-06T09:59:37.673Z,77.71
2019-04-06T10:01:07.016Z,77.35
2019-04-06T10:02:36.127Z,76.77
2019-04-06T10:04:04.850Z,76.12
2019-04-06T10:05:33.969Z,76.05
2019-04-06T10:07:03.205Z,76.21
2019-04-06T10:08:32.173Z,75.35
2019-04-06T10:10:00.935Z,75.52
2019-04-06T10:11:29.881Z,75.36
2019-04-06T10:12:59.485Z,75.17
2019-04-06T10:14:28.478Z,75.44
2019-04-06T10:15:57.482Z,75.23
2019-04-06T10:17:26.367Z,75.02
2019-04-06T10:18:55.509Z,75.09
2019-04-06T10:20:26.926Z,75.14
2019-04-06T10:22:46.144Z,74.32
2019-04-06T10:24:15.003Z,74.84
2019-04-06T10:25:44.184Z,74.02
2019-04-06T10:27:13.126Z,74.71
2019-04-06T10:28:41.873Z,74.79
2019-04-06T10:30:10.606Z,74.47
2019-04-06T10:31:39.321Z,74.31
2019-04-06T10:33:09.889Z,74.14
2019-04-06T10:34:39.714Z,74.07
2019-04-06T10:36:08.841Z,73.41
2019-04-06T10:37:37.562Z,73.07
2019-04-06T10:39:07.245Z,72.65
2019-04-06T10:40:36.308Z,72.88
2019-04-06T10:42:06.206Z,72.74
2019-04-06T10:43:35.895Z,72.32
2019-04-06T10:45:05.168Z,71.73
2019-04-06T10:46:34.144Z,71.23
2019-04-06T10:48:03.233Z,71.33
2019-04-06T10:49:32.335Z,71.03
2019-04-06T10:51:01.713Z,70.75
2019-04-06T10:52:30.441Z,70.7
2019-04-06T10:53:59.554Z,70.74
2019-04-06T10:55:28.274Z,70.62
2019-04-06T10:56:57.319Z,70.22
2019-04-06T10:58:26.078Z,69.61
2019-04-06T11:00:07.001Z,70
2019-04-06T11:01:35.718Z,69.89
2019-04-06T11:03:04.453Z,69.43
2019-04-06T11:04:36.402Z,68.96
2019-04-06T11:06:05.341Z,68.84
2019-04-06T11:07:34.630Z,68.73
2019-04-06T11:09:03.405Z,67.67
2019-04-06T11:10:32.450Z,68.46
2019-04-06T11:12:01.245Z,68.51
2019-04-06T11:13:30.707Z,66.47
2019-04-06T11:14:59.571Z,65.25
2019-04-06T11:16:28.457Z,65.13
2019-04-06T11:17:57.171Z,65.08
2019-04-06T11:19:25.904Z,65.09
2019-04-06T11:20:56.761Z,65.13
2019-04-06T11:22:25.662Z,65.01
2019-04-06T11:23:55.255Z,64.55
2019-04-06T11:25:24.053Z,64.12
2019-04-06T11:26:52.776Z,62.86
2019-04-06T11:28:21.496Z,62.97
2019-04-06T11:29:50.531Z,62.61
2019-04-06T11:31:19.336Z,62.21
2019-04-06T11:32:48.071Z,61.72
2019-04-06T11:34:17.666Z,62
2019-04-06T11:35:47.339Z,61.68
2019-04-06T11:37:16.175Z,61.25
2019-04-06T11:38:44.937Z,61.56
2019-04-06T11:40:13.854Z,61.16
2019-04-06T11:41:43.595Z,61.67
2019-04-06T11:43:12.693Z,61.31
2019-04-06T11:44:43.337Z,61.19
2019-04-06T11:46:13.237Z,61.08
2019-04-06T11:47:43.018Z,59.06
2019-04-06T11:49:13.091Z,59.11
2019-04-06T11:50:41.819Z,59.28
2019-04-06T11:52:10.546Z,60.26
2019-04-06T11:53:39.766Z,59.71
2019-04-06T11:55:09.237Z,59.4
2019-04-06T11:56:38.405Z,59.87
2019-04-06T11:58:08.784Z,59.06
2019-04-06T11:59:37.739Z,58.7
2019-04-06T12:01:07.026Z,59
2019-04-06T12:02:36.373Z,59.16
2019-04-06T12:04:05.954Z,59.67
2019-04-06T12:05:35.096Z,58.97
2019-04-06T12:07:05.981Z,58.68
2019-04-06T12:08:34.978Z,58.62
2019-04-06T12:10:03.918Z,59.53
2019-04-06T12:11:32.879Z,58.64
2019-04-06T12:13:02.624Z,58.39
2019-04-06T12:14:32.289Z,58.84
2019-04-06T12:16:01.399Z,56.76
2019-04-06T12:17:31.302Z,56.52
2019-04-06T12:19:00.421Z,56.53
2019-04-06T12:20:29.495Z,57.12
2019-04-06T12:21:58.455Z,57.24
2019-04-06T12:23:27.528Z,57.1
2019-04-06T12:24:56.683Z,56.86
2019-04-06T12:26:25.659Z,57.31
2019-04-06T12:27:54.784Z,56.89
2019-04-06T12:29:23.495Z,57.43
2019-04-06T12:30:52.330Z,56.94
2019-04-06T12:32:21.328Z,56.17
2019-04-06T12:33:50.454Z,56.07
2019-04-06T12:35:20.376Z,55.62
2019-04-06T12:36:49.289Z,55.43
2019-04-06T12:38:18.215Z,55.55
2019-04-06T12:39:57.923Z,55.96
2019-04-06T12:41:26.988Z,56.23
2019-04-06T12:42:55.828Z,56.38
2019-04-06T12:44:25.021Z,55.94
2019-04-06T12:45:54.615Z,56
2019-04-06T12:47:23.932Z,56.01
2019-04-06T12:48:53.658Z,55.94
2019-04-06T12:50:22.840Z,55.68
2019-04-06T12:51:51.925Z,55.42
2019-04-06T12:53:20.941Z,55.6
2019-04-06T12:54:49.972Z,55.6
2019-04-06T12:56:18.777Z,55.89
2019-04-06T12:57:47.661Z,55.33
2019-04-06T12:59:17.658Z,55.22
2019-04-06T13:00:57.658Z,54.92
2019-04-06T13:02:26.375Z,55.13
2019-04-06T13:03:55.972Z,54.93
2019-04-06T13:05:26.547Z,55.34
2019-04-06T13:06:56.210Z,55.64
2019-04-06T13:08:26.054Z,55.03
2019-04-06T13:09:55.008Z,55.45
2019-04-06T13:11:25.007Z,55.37
2019-04-06T13:12:54.294Z,55.85
2019-04-06T13:14:23.410Z,55.64
2019-04-06T13:15:52.568Z,56.24
2019-04-06T13:17:21.727Z,56.35
2019-04-06T13:18:51.331Z,56.48
2019-04-06T13:20:21.018Z,56.35
2019-04-06T13:21:51.013Z,56.8
2019-04-06T13:23:20.363Z,56.62
2019-04-06T13:24:49.197Z,56.97
2019-04-06T13:26:18.328Z,56.99
2019-04-06T13:27:49.996Z,56.86
2019-04-06T13:29:19.213Z,56.72
2019-04-06T13:31:04.666Z,56.63
2019-04-06T13:32:33.734Z,56.57
2019-04-06T13:34:02.612Z,56.43
2019-04-06T13:35:32.550Z,56.59
2019-04-06T13:37:01.340Z,56.62
2019-04-06T13:38:30.211Z,56.84
2019-04-06T13:39:59.032Z,56.69
2019-04-06T13:41:27.982Z,57.01
2019-04-06T13:42:56.694Z,57.43
2019-04-06T13:44:25.989Z,57.46
2019-04-06T13:45:56.302Z,57.31
2019-04-06T13:47:25.016Z,57.41
2019-04-06T13:48:54.308Z,57.26
2019-04-06T13:50:23.095Z,56.69
2019-04-06T13:51:51.818Z,56.85
2019-04-06T13:53:20.862Z,56.82
2019-04-06T13:54:49.796Z,57
2019-04-06T13:56:19.893Z,57.13
2019-04-06T13:57:48.642Z,57.21
2019-04-06T13:59:18.295Z,56.96
2019-04-06T14:00:47.932Z,56.85
2019-04-06T14:02:16.706Z,56.51
2019-04-06T14:03:45.723Z,55.89
2019-04-06T14:05:15.691Z,55.56
2019-04-06T14:06:45.329Z,54.89
2019-04-06T14:08:14.479Z,55.1
2019-04-06T14:09:43.253Z,55
2019-04-06T14:11:12.230Z,54.51
2019-04-06T14:12:40.938Z,54.02
2019-04-06T14:14:09.659Z,53.66
2019-04-06T14:15:39.347Z,54.81
2019-04-06T14:17:08.788Z,55.68
2019-04-06T14:18:40.135Z,56.47
2019-04-06T14:20:09.265Z,57.46
2019-04-06T14:21:38.707Z,58.06
2019-04-06T14:23:09.940Z,58.34
2019-04-06T14:24:40.044Z,58.47
2019-04-06T14:26:09.111Z,58.65
2019-04-06T14:27:39.186Z,58.94
2019-04-06T14:29:07.895Z,59.04
2019-04-06T14:30:37.051Z,59.17
2019-04-06T14:32:06.725Z,59.3
2019-04-06T14:33:36.291Z,59.46
2019-04-06T14:35:07.195Z,59.29
2019-04-06T14:36:36.424Z,59.13
2019-04-06T14:38:06.761Z,59.32
2019-04-06T14:39:39.808Z,59.6
2019-04-06T14:41:10.700Z,58.79
2019-04-06T14:42:39.543Z,58.8
2019-04-06T14:44:08.320Z,58.32
2019-04-06T14:45:37.350Z,58.86
2019-04-06T14:47:06.353Z,58.72
2019-04-06T14:48:35.092Z,59.17
2019-04-06T14:50:04.859Z,59.6
2019-04-06T14:51:34.223Z,59.9
2019-04-06T14:53:03.786Z,60.18
2019-04-06T14:54:34.008Z,59.61
2019-04-06T14:56:03.571Z,59.96
2019-04-06T14:57:32.385Z,59.56
2019-04-06T14:59:01.697Z,59.74
2019-04-06T15:00:30.932Z,59.31
2019-04-06T15:02:04.406Z,59.45
2019-04-06T15:03:33.607Z,59.72
2019-04-06T15:05:03.735Z,59.82
2019-04-06T15:06:32.680Z,59.88
2019-04-06T15:08:02.484Z,60.41
2019-04-06T15:09:32.301Z,60.34
2019-04-06T15:11:02.185Z,59.92
2019-04-06T15:12:31.105Z,60.51
2019-04-06T15:14:00.293Z,60.99
2019-04-06T15:15:31.101Z,60.68
2019-04-06T15:16:59.908Z,60.12
2019-04-06T15:18:29.535Z,59.68
2019-04-06T15:20:00.060Z,60.17
2019-04-06T15:21:29.154Z,60.66
2019-04-06T15:22:57.894Z,61.21
2019-04-06T15:24:27.098Z,61.05
2019-04-06T15:25:57.074Z,60.99
2019-04-06T15:27:27.300Z,61.69
2019-04-06T15:28:56.424Z,60.92
2019-04-06T15:30:26.058Z,60.29
2019-04-06T15:31:56.892Z,59.76
2019-04-06T15:33:26.053Z,59.68
2019-04-06T15:34:55.329Z,59.57
2019-04-06T15:36:26.505Z,59.29
2019-04-06T15:37:55.248Z,59.25
2019-04-06T15:39:24.055Z,58.79
2019-04-06T15:40:52.768Z,59.12
2019-04-06T15:42:21.916Z,59.19
2019-04-06T15:43:50.699Z,58.81
2019-04-06T15:45:20.213Z,59.28
2019-04-06T15:46:48.933Z,59.74
2019-04-06T15:48:19.010Z,60.08
2019-04-06T15:49:48.046Z,60.25
2019-04-06T15:51:17.184Z,60.59
2019-04-06T15:52:46.867Z,60.4
2019-04-06T15:54:15.578Z,60.34
2019-04-06T15:55:45.476Z,60.71
2019-04-06T15:57:15.100Z,60.23
2019-04-06T15:58:44.690Z,60.42
2019-04-06T16:00:13.418Z,60.66
2019-04-06T16:01:42.369Z,61.13
2019-04-06T16:03:12.835Z,61.18
2019-04-06T16:04:41.648Z,61.29
2019-04-06T16:06:11.262Z,61.37
2019-04-06T16:07:40.783Z,61.53
2019-04-06T16:09:09.825Z,61.7
2019-04-06T16:10:38.624Z,61.97
2019-04-06T16:12:08.065Z,62.08
2019-04-06T16:13:37.250Z,62.24
2019-04-06T16:15:06.474Z,62.32
2019-04-06T16:16:35.577Z,62.3
2019-04-06T16:18:04.529Z,62.58
2019-04-06T16:19:33.257Z,62.55
2019-04-06T16:21:04.690Z,62.88
2019-04-06T16:22:33.914Z,62.77
2019-04-06T16:24:09.016Z,62.56
2019-04-06T16:25:37.814Z,62.52
2019-04-06T16:27:09.846Z,62.52
2019-04-06T16:28:39.819Z,62.57
2019-04-06T16:30:09.021Z,62.8
2019-04-06T16:31:39.122Z,62.55
2019-04-06T16:33:09.639Z,62.51
2019-04-06T16:34:39.882Z,62.12
2019-04-06T16:36:10.467Z,62.31
2019-04-06T16:37:39.193Z,62.41
2019-04-06T16:39:07.969Z,62.23
2019-04-06T16:40:36.813Z,62.44
2019-04-06T16:42:06.053Z,62.51
2019-04-06T16:43:37.332Z,62.41
2019-04-06T16:45:06.411Z,62.03
2019-04-06T16:46:37.081Z,61.78
2019-04-06T16:48:05.823Z,62.11
2019-04-06T16:49:34.776Z,61.63
2019-04-06T16:51:05.166Z,61.89
2019-04-06T16:52:33.889Z,61.87
2019-04-06T16:54:03.118Z,61.89
2019-04-06T16:55:31.988Z,61.86
2019-04-06T16:57:01.639Z,62.18
2019-04-06T16:58:31.065Z,62.06
2019-04-06T16:59:59.886Z,62.16
2019-04-06T17:01:28.865Z,62.06
2019-04-06T17:02:59.327Z,62.15
2019-04-06T17:04:28.129Z,61.81
2019-04-06T17:05:57.277Z,61.9
2019-04-06T17:07:26.548Z,62.08
2019-04-06T17:08:56.703Z,62.1
2019-04-06T17:10:27.528Z,61.87
2019-04-06T17:11:56.386Z,61.42
2019-04-06T17:13:25.163Z,61.53
2019-04-06T17:14:54.375Z,61.59
2019-04-06T17:16:23.095Z,61.58
2019-04-06T17:17:52.746Z,61.71
2019-04-06T17:19:21.741Z,61.66
2019-04-06T17:20:50.468Z,61.23
2019-04-06T17:22:19.325Z,61.58
2019-04-06T17:23:50.701Z,61.37
2019-04-06T17:25:20.373Z,61.62
2019-04-06T17:26:49.354Z,61.65
2019-04-06T17:28:18.127Z,61.66
2019-04-06T17:29:47.261Z,61.69
2019-04-06T17:31:16.415Z,61.86
2019-04-06T17:32:45.190Z,61.53
2019-04-06T17:34:14.428Z,61.14
2019-04-06T17:35:44.033Z,60.97
2019-04-06T17:37:12.772Z,61.38
2019-04-06T17:38:43.034Z,61.5
2019-04-06T17:40:12.373Z,61.53
2019-04-06T17:41:41.098Z,60.61
2019-04-06T17:43:12.001Z,61
2019-04-06T17:44:41.015Z,61.31
2019-04-06T17:46:09.740Z,60.99
2019-04-06T17:47:38.786Z,60.94
2019-04-06T17:49:07.908Z,61.11
2019-04-06T17:50:36.615Z,61.23
2019-04-06T17:52:06.443Z,61.37
2019-04-06T17:53:35.506Z,61.55
2019-04-06T17:55:06.211Z,61.51
2019-04-06T17:56:35.334Z,61.49
2019-04-06T17:58:04.855Z,61.23
2019-04-06T17:59:33.736Z,60.9
2019-04-06T18:01:02.940Z,61.3
2019-04-06T18:02:33.507Z,60.99
2019-04-06T18:04:19.474Z,61.4
2019-04-06T18:06:42.403Z,61.83
2019-04-06T18:08:11.264Z,61.85
2019-04-06T18:09:40.401Z,61.91
2019-04-06T18:11:09.174Z,61.23
2019-04-06T18:12:38.430Z,61.94
2019-04-06T18:14:07.321Z,61.97
2019-04-06T18:15:37.044Z,62.1
2019-04-06T18:17:06.220Z,61.69
2019-04-06T18:18:35.660Z,61.73
2019-04-06T18:20:05.590Z,62.42
2019-04-06T18:21:34.703Z,62.59
2019-04-06T18:23:05.515Z,62.99
2019-04-06T18:24:35.251Z,62.9
2019-04-06T18:26:03.980Z,62.96
2019-04-06T18:27:33.036Z,62.74
2019-04-06T18:29:01.929Z,62.6
2019-04-06T18:30:31.733Z,62.65
2019-04-06T18:32:00.535Z,62.72
2019-04-06T18:33:30.145Z,63.21
2019-04-06T18:34:59.445Z,63.27
2019-04-06T18:36:30.941Z,63.41
2019-04-06T18:37:59.730Z,63.85
2019-04-06T18:39:28.542Z,64.01
2019-04-06T18:40:58.794Z,64.79
2019-04-06T18:42:28.057Z,65.41
2019-04-06T18:43:57.011Z,66.07
2019-04-06T18:45:26.617Z,66.39
2019-04-06T18:46:57.351Z,67.18
2019-04-06T18:48:27.524Z,67.66
2019-04-06T18:49:57.471Z,68.76
2019-04-06T18:51:26.210Z,69.18
2019-04-06T18:52:54.945Z,69.77
2019-04-06T18:54:23.659Z,70.48
2019-04-06T18:55:52.733Z,71.24
2019-04-06T18:57:22.377Z,71.68
2019-04-06T18:58:53.039Z,71.76
2019-04-06T19:00:22.881Z,71.37
2019-04-06T19:01:51.655Z,71.46
2019-04-06T19:03:23.320Z,72.28
2019-04-06T19:04:53.219Z,72.75
2019-04-06T19:06:21.979Z,72.62
2019-04-06T19:07:50.688Z,72.49
2019-04-06T19:09:28.240Z,72.99
2019-04-06T19:11:01.400Z,72.67
2019-04-06T19:12:31.593Z,72.93
2019-04-06T19:14:00.615Z,73.28
2019-04-06T19:15:29.700Z,73.35
2019-04-06T19:16:59.649Z,73.54
2019-04-06T19:18:29.559Z,73.93
2019-04-06T19:19:58.932Z,74.65
2019-04-06T19:21:31.052Z,75.53
2019-04-06T19:22:59.820Z,76.06
2019-04-06T19:24:28.562Z,76.55
2019-04-06T19:25:59.141Z,76.42
2019-04-06T19:27:27.921Z,76.5
2019-04-06T19:28:58.258Z,77.06
2019-04-06T19:30:27.182Z,76.71
2019-04-06T19:31:59.079Z,77.01
2019-04-06T19:33:30.695Z,77.74
2019-04-06T19:34:59.651Z,77.92
2019-04-06T19:36:30.392Z,77.52
2019-04-06T19:37:59.774Z,77.48
2019-04-06T19:39:29.248Z,78
2019-04-06T19:40:58.756Z,78.52
2019-04-06T19:42:28.709Z,77.65
2019-04-06T19:43:58.828Z,77.92
2019-04-06T19:45:28.580Z,77.94
2019-04-06T19:46:58.756Z,78.75
2019-04-06T19:48:28.529Z,79.06
2019-04-06T19:49:58.410Z,79.11
2019-04-06T19:51:27.328Z,79.28
2019-04-06T19:52:57.645Z,79.18
2019-04-06T19:54:26.999Z,79.31
2019-04-06T19:55:56.501Z,79.53
2019-04-06T19:57:26.195Z,79.75
2019-04-06T19:58:56.506Z,79.87
2019-04-06T20:00:27.487Z,79.55
2019-04-06T20:01:57.612Z,79.66
2019-04-06T20:03:40.151Z,79.9
2019-04-06T20:05:08.933Z,79.64
2019-04-06T20:06:39.910Z,80.08
2019-04-06T20:08:09.849Z,79.88
2019-04-06T20:09:38.611Z,80.07
2019-04-06T20:11:09.013Z,80.13
2019-04-06T20:12:39.119Z,80.25
2019-04-06T20:14:08.857Z,80.73
2019-04-06T20:15:38.976Z,80.79
2019-04-06T20:17:08.745Z,80.88
2019-04-06T20:18:37.976Z,81.42
2019-04-06T20:20:07.751Z,81.63
2019-04-06T20:21:37.576Z,81.8
2019-04-06T20:23:07.398Z,81.9
2019-04-06T20:24:37.516Z,82.05
2019-04-06T20:26:06.434Z,82.2
2019-04-06T20:27:35.652Z,82.37
2019-04-06T20:29:04.851Z,82.61
2019-04-06T20:30:33.658Z,82.74
2019-04-06T20:32:03.320Z,82.8
2019-04-06T20:33:32.955Z,82.95
2019-04-06T20:35:03.083Z,83.14
2019-04-06T20:36:32.216Z,83.05
2019-04-06T20:38:00.933Z,83.21